Terminal Aerodrome Forecast
Issued by NWS Twin Cities, MN

Home | Current Version | Previous Version | Text Only | Print | Product List | Glossary Off
Versions: 1 2 3 4 5 6 7 8 9 10 11 12 13 14 15 16 17 18 19 20 21 22 23

000
FTUS43 KMPX 230600 CCA
TAFEAU
TAF COR
KEAU 230620Z 2306/2406 02005KT 6SM BR BKN008
     FM230800 05002KT 3SM BR OVC004
     FM231400 07008KT P6SM BKN007 OVC015
     FM231800 08008KT P6SM BKN015
     FM232000 09008KT P6SM SCT030 BKN100
     FM240200 12007KT 5SM BR BKN030=

USA.gov is the U.S. government's official web portal to all federal, state and local government web resources and services.